createdAt,value
2018-07-11T00:01:48.502Z,99551.23
2018-07-11T00:04:19.170Z,99552.47
2018-07-11T00:06:49.653Z,99554.00
2018-07-11T00:09:20.365Z,99562.35
2018-07-11T00:11:51.078Z,99557.70
2018-07-11T00:14:21.262Z,99552.70
2018-07-11T00:16:56.969Z,99560.77
2018-07-11T00:19:27.614Z,99550.22
2018-07-11T00:21:58.539Z,99552.84
2018-07-11T00:24:29.398Z,99551.55
2018-07-11T00:27:00.389Z,99546.63
2018-07-11T00:29:30.496Z,99545.47
2018-07-11T00:32:01.665Z,99549.81
2018-07-11T00:34:32.434Z,99544.93
2018-07-11T00:37:03.291Z,99549.28
2018-07-11T00:39:34.614Z,99542.41
2018-07-11T00:42:05.722Z,99546.20
2018-07-11T00:44:36.613Z,99549.42
2018-07-11T00:47:07.353Z,99550.81
2018-07-11T00:49:37.981Z,99550.39
2018-07-11T00:52:08.937Z,99546.80
2018-07-11T00:54:39.678Z,99544.33
2018-07-11T00:57:10.220Z,99544.00
2018-07-11T00:59:42.237Z,99542.35
2018-07-11T01:02:12.998Z,99545.89
2018-07-11T01:04:43.642Z,99543.26
2018-07-11T01:07:14.036Z,99548.44
2018-07-11T01:09:50.361Z,99544.70
2018-07-11T01:12:21.409Z,99538.08
2018-07-11T01:14:52.019Z,99536.35
2018-07-11T01:17:27.520Z,99535.30
2018-07-11T01:19:59.140Z,99540.28
2018-07-11T01:22:30.084Z,99538.02
2018-07-11T01:27:30.085Z,99544.39
2018-07-11T01:30:00.706Z,99539.80
2018-07-11T01:32:31.435Z,99541.88
2018-07-11T01:35:01.632Z,99538.02
2018-07-11T01:37:32.648Z,99536.71
2018-07-11T01:40:03.143Z,99545.44
2018-07-11T01:42:33.468Z,99545.13
2018-07-11T01:45:03.753Z,99544.53
2018-07-11T01:47:34.634Z,99549.99
2018-07-11T01:50:05.262Z,99547.36
2018-07-11T01:52:52.318Z,99546.31
2018-07-11T01:55:23.085Z,99549.03
2018-07-11T01:57:58.850Z,99546.77
2018-07-11T02:00:30.685Z,99546.06
2018-07-11T02:03:01.545Z,99545.34
2018-07-11T02:05:32.357Z,99545.38
2018-07-11T02:08:04.522Z,99548.66
2018-07-11T02:10:35.281Z,99550.13
2018-07-11T02:13:06.142Z,99550.73
2018-07-11T02:15:37.003Z,99555.23
2018-07-11T02:18:07.905Z,99551.95
2018-07-11T02:20:38.661Z,99549.91
2018-07-11T02:23:09.422Z,99554.95
2018-07-11T02:25:40.173Z,99561.91
2018-07-11T02:28:10.733Z,99559.81
2018-07-11T02:30:41.590Z,99559.45
2018-07-11T02:33:12.405Z,99565.98
2018-07-11T02:35:43.062Z,99564.91
2018-07-11T02:38:13.830Z,99563.23
2018-07-11T02:40:44.658Z,99568.28
2018-07-11T02:43:15.817Z,99570.42
2018-07-11T02:45:46.596Z,99574.73
2018-07-11T02:48:17.631Z,99565.50
2018-07-11T02:50:48.332Z,99577.44
2018-07-11T02:53:24.442Z,99573.72
2018-07-11T02:55:55.189Z,99574.00
2018-07-11T02:58:26.189Z,99573.87
2018-07-11T03:00:56.417Z,99571.66
2018-07-11T03:03:27.230Z,99579.24
2018-07-11T03:05:57.990Z,99580.89
2018-07-11T03:08:38.361Z,99575.27
2018-07-11T03:11:09.075Z,99586.03
2018-07-11T03:13:39.829Z,99581.73
2018-07-11T03:16:10.490Z,99579.77
2018-07-11T03:18:41.173Z,99581.17
2018-07-11T03:21:11.853Z,99579.84
2018-07-11T03:23:42.991Z,99578.25
2018-07-11T03:26:13.763Z,99583.88
2018-07-11T03:28:44.146Z,99578.91
2018-07-11T03:31:14.932Z,99579.91
2018-07-11T03:33:45.268Z,99585.80
2018-07-11T03:36:15.364Z,99582.03
2018-07-11T03:38:46.437Z,99588.16
2018-07-11T03:41:17.045Z,99591.88
2018-07-11T03:43:47.786Z,99591.66
2018-07-11T03:46:18.585Z,99589.55
2018-07-11T03:48:49.449Z,99584.72
2018-07-11T03:51:20.201Z,99593.48
2018-07-11T03:53:50.598Z,99592.25
2018-07-11T03:56:21.422Z,99588.28
2018-07-11T03:58:52.569Z,99594.19
2018-07-11T04:01:23.338Z,99591.84
2018-07-11T04:03:54.226Z,99594.70
2018-07-11T04:06:24.728Z,99593.05
2018-07-11T04:08:55.392Z,99589.93
2018-07-11T04:11:26.049Z,99589.17
2018-07-11T04:13:56.898Z,99587.30
2018-07-11T04:16:27.505Z,99585.31
2018-07-11T04:18:57.892Z,99597.09
2018-07-11T04:21:28.553Z,99598.01
2018-07-11T04:23:59.486Z,99594.73
2018-07-11T04:26:30.149Z,99597.42
2018-07-11T04:29:01.296Z,99594.10
2018-07-11T04:31:32.729Z,99599.20
2018-07-11T04:34:03.522Z,99599.66
2018-07-11T04:36:34.169Z,99604.39
2018-07-11T04:39:05.295Z,99609.12
2018-07-11T04:41:35.865Z,99615.00
2018-07-11T04:44:06.529Z,99612.52
2018-07-11T04:46:37.146Z,99610.19
2018-07-11T04:49:08.346Z,99610.39
2018-07-11T04:51:39.074Z,99616.88
2018-07-11T04:54:09.709Z,99619.36
2018-07-11T04:56:40.401Z,99620.16
2018-07-11T04:59:11.291Z,99611.58
2018-07-11T05:01:42.006Z,99615.88
2018-07-11T05:04:12.729Z,99613.56
2018-07-11T05:06:43.389Z,99608.30
2018-07-11T05:09:14.077Z,99608.29
2018-07-11T05:11:44.905Z,99604.92
2018-07-11T05:14:15.551Z,99609.30
2018-07-11T05:16:46.274Z,99613.52
2018-07-11T05:19:17.317Z,99608.20
2018-07-11T05:21:47.995Z,99610.20
2018-07-11T05:24:18.685Z,99607.22
2018-07-11T05:26:49.385Z,99610.02
2018-07-11T05:29:20.064Z,99613.51
2018-07-11T05:31:50.778Z,99614.88
2018-07-11T05:34:21.601Z,99616.73
2018-07-11T05:36:52.313Z,99622.20
2018-07-11T05:39:22.969Z,99622.47
2018-07-11T05:41:53.140Z,99623.54
2018-07-11T05:44:23.905Z,99620.73
2018-07-11T05:46:59.590Z,99620.92
2018-07-11T05:49:30.673Z,99626.68
2018-07-11T05:52:01.900Z,99628.00
2018-07-11T05:54:33.915Z,99621.82
2018-07-11T05:57:04.565Z,99626.09
2018-07-11T05:59:35.338Z,99628.45
2018-07-11T06:02:06.170Z,99626.63
2018-07-11T06:04:36.865Z,99620.89
2018-07-11T06:07:07.438Z,99630.69
2018-07-11T06:09:38.260Z,99627.77
2018-07-11T06:12:08.917Z,99626.66
2018-07-11T06:14:39.709Z,99627.05
2018-07-11T06:17:10.379Z,99627.58
2018-07-11T06:19:41.098Z,99622.07
2018-07-11T06:22:11.743Z,99616.78
2018-07-11T06:24:42.836Z,99623.60
2018-07-11T06:27:13.512Z,99617.39
2018-07-11T06:29:44.481Z,99617.63
2018-07-11T06:32:15.087Z,99616.30
2018-07-11T06:34:45.590Z,99608.22
2018-07-11T06:37:16.347Z,99612.08
2018-07-11T06:39:47.125Z,99614.33
2018-07-11T06:42:17.325Z,99610.67
2018-07-11T06:44:48.190Z,99608.62
2018-07-11T06:47:18.935Z,99615.77
2018-07-11T06:49:49.657Z,99608.60
2018-07-11T06:52:20.333Z,99601.45
2018-07-11T06:54:51.172Z,99599.81
2018-07-11T06:57:21.913Z,99604.84
2018-07-11T06:59:52.697Z,99597.40
2018-07-11T07:02:23.379Z,99597.81
2018-07-11T07:04:54.469Z,99594.95
2018-07-11T07:07:24.652Z,99594.58
2018-07-11T07:09:55.550Z,99586.18
2018-07-11T07:12:26.361Z,99588.59
2018-07-11T07:14:57.321Z,99583.55
2018-07-11T07:17:27.909Z,99581.84
2018-07-11T07:19:58.705Z,99580.27
2018-07-11T07:22:29.359Z,99577.09
2018-07-11T07:25:00.190Z,99571.17
2018-07-11T07:27:32.617Z,99579.44
2018-07-11T07:30:02.785Z,99573.84
2018-07-11T07:32:33.553Z,99571.84
2018-07-11T07:35:04.273Z,99575.82
2018-07-11T07:37:35.082Z,99564.63
2018-07-11T07:40:05.959Z,99567.80
2018-07-11T07:42:36.220Z,99558.45
2018-07-11T07:45:07.951Z,99566.75
2018-07-11T07:47:44.629Z,99562.52
2018-07-11T07:50:16.481Z,99561.43
2018-07-11T07:52:47.680Z,99559.40
2018-07-11T07:55:18.569Z,99555.75
2018-07-11T07:57:49.325Z,99560.16
2018-07-11T08:00:20.149Z,99555.36
2018-07-11T08:02:50.894Z,99556.17
2018-07-11T08:05:21.713Z,99557.33
2018-07-11T08:07:52.226Z,99557.63
2018-07-11T08:10:23.103Z,99558.95
2018-07-11T08:12:53.781Z,99561.14
2018-07-11T08:15:24.514Z,99562.28
2018-07-11T08:17:55.264Z,99561.69
2018-07-11T08:20:26.094Z,99556.39
2018-07-11T08:23:23.332Z,99557.75
2018-07-11T08:26:10.447Z,99553.13
2018-07-11T08:31:01.231Z,99547.36
2018-07-11T08:34:48.861Z,99545.36
2018-07-11T08:38:34.397Z,99542.38
2018-07-11T08:41:23.526Z,99537.29
2018-07-11T08:46:14.465Z,99533.88
2018-07-11T08:48:59.565Z,99538.59
2018-07-11T08:51:45.206Z,99532.20
2018-07-11T08:54:26.621Z,99532.55
2018-07-11T09:02:42.585Z,99529.63
2018-07-11T09:05:30.444Z,99526.73
2018-07-11T09:12:27.409Z,99523.70
2018-07-11T09:17:20.598Z,99522.27
2018-07-11T09:20:00.500Z,99517.33
2018-07-11T09:23:23.221Z,99520.95
2018-07-11T09:25:54.128Z,99506.90
2018-07-11T09:28:24.902Z,99510.79
2018-07-11T09:30:55.634Z,99512.63
2018-07-11T09:33:26.444Z,99514.41
2018-07-11T09:35:56.964Z,99510.91
2018-07-11T09:38:27.293Z,99505.99
2018-07-11T09:40:57.790Z,99502.47
2018-07-11T09:43:28.461Z,99501.02
2018-07-11T09:45:59.029Z,99496.78
2018-07-11T09:48:29.483Z,99495.39
2018-07-11T09:51:00.417Z,99495.25
2018-07-11T09:53:31.246Z,99494.56
2018-07-11T09:56:02.117Z,99493.18
2018-07-11T09:58:33.547Z,99491.28
2018-07-11T10:01:09.311Z,99491.89
2018-07-11T10:03:40.186Z,99490.02
2018-07-11T10:06:11.075Z,99490.52
2018-07-11T10:08:41.702Z,99490.97
2018-07-11T10:11:12.545Z,99497.81
2018-07-11T10:13:43.104Z,99495.30
2018-07-11T10:16:14.569Z,99487.09
2018-07-11T10:19:00.736Z,99490.40
2018-07-11T10:21:32.383Z,99485.17
2018-07-11T10:24:03.177Z,99480.67
2018-07-11T10:26:33.914Z,99471.00
2018-07-11T10:29:04.637Z,99468.05
2018-07-11T10:31:35.377Z,99464.58
2018-07-11T10:34:06.210Z,99466.17
2018-07-11T10:36:36.939Z,99470.12
2018-07-11T10:39:08.175Z,99457.71
2018-07-11T10:41:38.921Z,99461.47
2018-07-11T10:44:09.530Z,99460.84
2018-07-11T10:46:40.602Z,99465.00
2018-07-11T10:49:11.325Z,99457.22
2018-07-11T10:51:42.855Z,99464.72
2018-07-11T10:54:13.235Z,99451.78
2018-07-11T10:56:43.929Z,99450.89
2018-07-11T10:59:15.400Z,99443.84
2018-07-11T11:01:46.565Z,99444.37
2018-07-11T11:04:21.841Z,99453.18
2018-07-11T11:06:52.681Z,99440.11
2018-07-11T11:09:23.958Z,99441.61
2018-07-11T11:11:54.758Z,99438.03
2018-07-11T11:14:25.358Z,99444.90
2018-07-11T11:16:56.157Z,99441.19
2018-07-11T11:19:27.029Z,99437.19
2018-07-11T11:21:57.953Z,99431.13
2018-07-11T11:24:28.774Z,99435.28
2018-07-11T11:26:59.674Z,99434.95
2018-07-11T11:29:30.013Z,99432.36
2018-07-11T11:32:01.138Z,99425.64
2018-07-11T11:34:31.845Z,99425.20
2018-07-11T11:37:02.757Z,99423.73
2018-07-11T11:39:33.623Z,99420.34
2018-07-11T11:42:04.323Z,99420.70
2018-07-11T11:44:34.942Z,99416.56
2018-07-11T11:47:05.816Z,99409.22
2018-07-11T11:49:36.535Z,99412.81
2018-07-11T11:52:07.298Z,99398.76
2018-07-11T11:54:37.429Z,99401.33
2018-07-11T11:57:07.905Z,99396.55
2018-07-11T11:59:38.553Z,99393.68
2018-07-11T12:02:11.183Z,99392.09
2018-07-11T12:04:42.494Z,99385.60
2018-07-11T12:07:13.202Z,99383.31
2018-07-11T12:09:43.963Z,99383.28
2018-07-11T12:12:14.800Z,99381.85
2018-07-11T12:14:45.591Z,99381.44
2018-07-11T12:17:16.553Z,99381.96
2018-07-11T12:19:47.858Z,99381.92
2018-07-11T12:22:24.814Z,99381.80
2018-07-11T12:24:55.516Z,99372.62
2018-07-11T12:27:26.214Z,99371.92
2018-07-11T12:29:56.898Z,99370.80
2018-07-11T12:32:27.629Z,99369.77
2018-07-11T12:34:58.405Z,99368.05
2018-07-11T12:37:29.249Z,99365.80
2018-07-11T12:40:00.059Z,99366.04
2018-07-11T12:42:30.889Z,99369.52
2018-07-11T12:45:01.889Z,99361.08
2018-07-11T12:47:38.001Z,99362.49
2018-07-11T12:50:08.799Z,99363.83
2018-07-11T12:52:43.340Z,99362.32
2018-07-11T12:55:14.101Z,99358.21
2018-07-11T12:57:44.993Z,99361.51
2018-07-11T13:00:15.732Z,99354.96
2018-07-11T13:02:46.955Z,99356.06
2018-07-11T13:05:17.885Z,99355.14
2018-07-11T13:07:48.874Z,99352.69
2018-07-11T13:10:19.686Z,99352.23
2018-07-11T13:12:50.583Z,99349.95
2018-07-11T13:15:21.457Z,99356.63
2018-07-11T13:17:52.444Z,99353.47
2018-07-11T13:20:22.973Z,99350.46
2018-07-11T13:22:53.815Z,99349.81
2018-07-11T13:25:24.538Z,99350.42
2018-07-11T13:27:55.618Z,99352.20
2018-07-11T13:30:26.454Z,99350.72
2018-07-11T13:32:57.263Z,99349.23
2018-07-11T13:35:28.062Z,99349.61
2018-07-11T13:37:58.434Z,99351.59
2018-07-11T13:40:29.133Z,99348.84
2018-07-11T13:43:00.113Z,99343.31
2018-07-11T13:45:30.786Z,99342.54
2018-07-11T13:48:02.877Z,99342.65
2018-07-11T13:50:35.101Z,99347.81
2018-07-11T13:53:05.928Z,99347.50
2018-07-11T13:55:36.675Z,99349.44
2018-07-11T13:58:07.761Z,99342.22
2018-07-11T14:00:38.349Z,99338.94
2018-07-11T14:03:09.338Z,99343.98
2018-07-11T14:05:40.062Z,99339.45
2018-07-11T14:08:10.821Z,99333.03
2018-07-11T14:10:42.050Z,99335.64
2018-07-11T14:13:12.897Z,99341.75
2018-07-11T14:15:43.609Z,99334.27
2018-07-11T14:18:14.981Z,99338.36
2018-07-11T14:20:45.629Z,99339.02
2018-07-11T14:23:21.129Z,99337.55
2018-07-11T14:25:51.925Z,99338.06
2018-07-11T14:28:22.826Z,99339.17
2018-07-11T14:30:53.565Z,99337.81
2018-07-11T14:33:26.206Z,99335.72
2018-07-11T14:35:56.840Z,99338.00
2018-07-11T14:38:28.273Z,99333.27
2018-07-11T14:41:00.981Z,99338.41
2018-07-11T14:43:31.957Z,99333.38
2018-07-11T14:46:02.778Z,99334.83
2018-07-11T14:48:33.797Z,99333.66
2018-07-11T14:51:04.799Z,99333.27
2018-07-11T14:53:35.710Z,99331.22
2018-07-11T14:56:06.475Z,99335.93
2018-07-11T14:58:37.305Z,99336.23
2018-07-11T15:01:07.973Z,99333.41
2018-07-11T15:03:39.689Z,99335.84
2018-07-11T15:06:10.194Z,99327.38
2018-07-11T15:08:41.049Z,99335.38
2018-07-11T15:11:11.693Z,99332.52
2018-07-11T15:13:42.502Z,99332.30
2018-07-11T15:16:13.145Z,99333.70
2018-07-11T15:18:43.893Z,99330.55
2018-07-11T15:21:15.277Z,99330.18
2018-07-11T15:23:46.214Z,99328.48
2018-07-11T15:26:17.152Z,99325.91
2018-07-11T15:28:47.987Z,99327.18
2018-07-11T15:31:18.850Z,99326.82
2018-07-11T15:33:50.086Z,99340.33
2018-07-11T15:36:20.297Z,99333.50
2018-07-11T15:38:51.145Z,99330.31
2018-07-11T15:41:21.400Z,99331.67
2018-07-11T15:43:52.581Z,99341.06
2018-07-11T15:46:23.573Z,99337.13
2018-07-11T15:48:54.446Z,99347.11
2018-07-11T15:51:25.201Z,99351.56
2018-07-11T15:53:56.853Z,99345.17
2018-07-11T15:56:27.585Z,99352.09
2018-07-11T15:59:07.848Z,99350.36
2018-07-11T16:01:46.259Z,99353.03
2018-07-11T16:04:26.046Z,99358.86
2018-07-11T16:07:04.446Z,99349.03
2018-07-11T16:09:50.209Z,99350.12
2018-07-11T16:12:20.858Z,99349.70
2018-07-11T16:14:51.149Z,99357.22
2018-07-11T16:17:22.368Z,99352.78
2018-07-11T16:19:53.492Z,99357.00
2018-07-11T16:22:24.474Z,99363.61
2018-07-11T16:24:55.574Z,99368.05
2018-07-11T16:27:26.490Z,99367.63
2018-07-11T16:29:57.326Z,99374.27
2018-07-11T16:32:27.689Z,99367.86
2018-07-11T16:34:58.806Z,99369.39
2018-07-11T16:37:29.533Z,99374.69
2018-07-11T16:40:00.309Z,99374.03
2018-07-11T16:42:31.137Z,99378.54
2018-07-11T16:45:02.115Z,99382.34
2018-07-11T16:47:32.959Z,99385.33
2018-07-11T16:50:03.801Z,99383.84
2018-07-11T16:52:34.112Z,99380.02
2018-07-11T16:55:04.749Z,99380.83
2018-07-11T16:57:42.361Z,99383.34
2018-07-11T17:00:13.339Z,99379.22
2018-07-11T17:02:46.598Z,99386.88
2018-07-11T17:05:22.829Z,99390.03
2018-07-11T17:07:57.958Z,99392.76
2018-07-11T17:10:31.656Z,99400.14
2018-07-11T17:13:12.018Z,99398.36
2018-07-11T17:15:49.508Z,99399.42
2018-07-11T17:18:32.560Z,99404.35
2018-07-11T17:21:10.584Z,99403.59
2018-07-11T17:23:48.781Z,99412.97
2018-07-11T17:26:19.469Z,99413.74
2018-07-11T17:28:50.253Z,99415.14
2018-07-11T17:31:21.021Z,99418.05
2018-07-11T17:33:51.757Z,99417.06
2018-07-11T17:36:23.069Z,99424.19
2018-07-11T17:38:54.781Z,99425.95
2018-07-11T17:41:25.861Z,99434.92
2018-07-11T17:43:56.045Z,99440.89
2018-07-11T17:46:26.978Z,99445.09
2018-07-11T17:49:16.158Z,99443.14
2018-07-11T17:52:01.463Z,99449.48
2018-07-11T17:54:57.902Z,99451.34
2018-07-11T17:57:38.072Z,99452.45
2018-07-11T18:00:09.655Z,99459.23
2018-07-11T18:02:52.141Z,99458.73
2018-07-11T18:05:36.471Z,99458.22
2018-07-11T18:08:10.251Z,99464.44
2018-07-11T18:10:51.845Z,99455.83
2018-07-11T18:13:33.156Z,99460.73
2018-07-11T18:16:45.163Z,99461.46
2018-07-11T18:19:33.172Z,99464.48
2018-07-11T18:22:14.145Z,99465.16
2018-07-11T18:25:07.917Z,99466.25
2018-07-11T18:27:55.333Z,99472.59
2018-07-11T18:30:42.562Z,99480.00
2018-07-11T18:33:31.731Z,99481.80
2018-07-11T18:38:21.562Z,99486.58
2018-07-11T18:44:24.071Z,99493.08
2018-07-11T18:48:09.057Z,99497.52
2018-07-11T18:50:56.061Z,99505.48
2018-07-11T18:53:44.827Z,99514.73
2018-07-11T18:56:37.266Z,99520.79
2018-07-11T19:01:56.114Z,99520.52
2018-07-11T19:04:45.827Z,99521.95
2018-07-11T19:07:59.966Z,99528.66
2018-07-11T19:10:50.990Z,99528.43
2018-07-11T19:13:32.511Z,99535.10
2018-07-11T19:16:17.229Z,99529.35
2018-07-11T19:19:10.022Z,99533.12
2018-07-11T19:23:54.592Z,99539.06
2018-07-11T19:26:47.645Z,99543.59
2018-07-11T19:30:43.950Z,99550.54
2018-07-11T19:33:58.853Z,99550.05
2018-07-11T19:37:17.254Z,99551.41
2018-07-11T19:40:11.043Z,99557.97
2018-07-11T19:43:00.549Z,99558.08
2018-07-11T19:45:48.281Z,99566.82
2018-07-11T19:50:42.390Z,99568.34
2018-07-11T19:54:26.161Z,99567.32
2018-07-11T19:56:58.942Z,99564.16
2018-07-11T19:59:29.885Z,99559.41
2018-07-11T20:02:00.759Z,99560.09
2018-07-11T20:04:31.621Z,99564.58
2018-07-11T20:07:02.363Z,99566.66
2018-07-11T20:09:33.185Z,99567.91
2018-07-11T20:12:03.917Z,99564.48
2018-07-11T20:14:34.893Z,99563.08
2018-07-11T20:17:05.662Z,99562.48
2018-07-11T20:19:36.449Z,99572.94
2018-07-11T20:22:07.182Z,99572.23
2018-07-11T20:24:37.912Z,99576.42
2018-07-11T20:27:08.738Z,99577.86
2018-07-11T20:29:39.222Z,99579.08
2018-07-11T20:32:10.049Z,99587.72
2018-07-11T20:34:40.910Z,99587.72
2018-07-11T20:37:11.554Z,99597.36
2018-07-11T20:39:42.494Z,99603.91
2018-07-11T20:42:13.282Z,99603.95
2018-07-11T20:44:44.057Z,99609.33
2018-07-11T20:47:14.829Z,99606.09
2018-07-11T20:49:46.085Z,99606.64
2018-07-11T20:52:16.765Z,99609.27
2018-07-11T20:54:47.523Z,99603.53
2018-07-11T20:57:18.229Z,99607.16
2018-07-11T21:01:05.130Z,99611.69
2018-07-11T21:04:18.157Z,99609.85
2018-07-11T21:09:15.869Z,99616.97
2018-07-11T21:12:19.369Z,99613.94
2018-07-11T21:15:08.893Z,99617.12
2018-07-11T21:19:09.339Z,99618.75
2018-07-11T21:21:41.209Z,99631.25
2018-07-11T21:24:12.582Z,99630.16
2018-07-11T21:26:43.357Z,99630.17
2018-07-11T21:29:14.082Z,99625.22
2018-07-11T21:31:44.902Z,99629.90
2018-07-11T21:34:15.085Z,99632.34
2018-07-11T21:36:45.997Z,99632.38
2018-07-11T21:39:16.701Z,99631.57
2018-07-11T21:41:47.425Z,99633.44
2018-07-11T21:44:17.549Z,99626.40
2018-07-11T21:46:48.209Z,99630.86
2018-07-11T21:49:22.986Z,99631.06
2018-07-11T21:51:54.161Z,99628.20
2018-07-11T21:54:24.830Z,99629.24
2018-07-11T21:56:55.482Z,99630.02
2018-07-11T21:59:26.233Z,99633.16
2018-07-11T22:01:56.245Z,99622.38
2018-07-11T22:04:27.313Z,99618.72
2018-07-11T22:06:57.993Z,99622.39
2018-07-11T22:09:28.769Z,99626.63
2018-07-11T22:11:59.025Z,99622.41
2018-07-11T22:14:29.869Z,99626.91
2018-07-11T22:17:09.989Z,99625.02
2018-07-11T22:19:38.979Z,99627.66
2018-07-11T22:22:07.321Z,99627.15
2018-07-11T22:24:35.581Z,99629.04
2018-07-11T22:27:03.918Z,99632.71
2018-07-11T22:29:32.376Z,99640.58
2018-07-11T22:32:00.905Z,99635.34
2018-07-11T22:34:29.294Z,99639.56
2018-07-11T22:36:57.473Z,99639.84
2018-07-11T22:39:25.926Z,99636.45
2018-07-11T22:41:54.365Z,99641.41
2018-07-11T22:44:22.537Z,99635.14
2018-07-11T22:46:50.704Z,99641.65
2018-07-11T22:49:19.597Z,99640.07
2018-07-11T22:51:48.285Z,99636.66
2018-07-11T22:54:16.637Z,99635.34
2018-07-11T22:56:45.049Z,99637.45
2018-07-11T22:59:13.314Z,99639.05
2018-07-11T23:01:41.491Z,99640.36
2018-07-11T23:04:10.040Z,99638.80
2018-07-11T23:06:38.205Z,99638.30
2018-07-11T23:09:06.439Z,99638.58
2018-07-11T23:11:35.174Z,99633.89
2018-07-11T23:14:03.377Z,99636.75
2018-07-11T23:16:31.732Z,99633.65
2018-07-11T23:18:59.941Z,99632.33
2018-07-11T23:21:28.420Z,99631.82
2018-07-11T23:23:58.295Z,99635.75
2018-07-11T23:26:26.529Z,99637.36
2018-07-11T23:28:54.789Z,99639.70
2018-07-11T23:31:23.235Z,99643.38
2018-07-11T23:33:51.846Z,99637.88
2018-07-11T23:36:19.979Z,99636.05
2018-07-11T23:38:48.226Z,99637.88
2018-07-11T23:41:16.635Z,99639.17
2018-07-11T23:43:44.839Z,99640.47
2018-07-11T23:46:13.006Z,99639.15
2018-07-11T23:48:41.566Z,99646.75
2018-07-11T23:51:09.767Z,99643.36
2018-07-11T23:53:38.218Z,99653.23
2018-07-11T23:56:06.640Z,99649.30
2018-07-11T23:58:34.901Z,99650.11
